GCXO/TFN METAR and TAF weather

Enter ICAO airport designator
Station Type Date Time Source
GCXO METAR 2021/02/27 10:00 UTC NOAA

GCXO 271000Z 31017KT 9999 FEW010 BKN025 12/08 Q1023 NOSIG


Station Type Date Time Source
GCXO Decoded METAR 2021/02/27 10:00 UTC NOAA

Tenerife / Los Rodeos, Spain (GCXO) 28-28N 016-19W 617M
Feb 27, 2021 - 05:00 AM EST / 2021.02.27 1000 UTC
Wind: from the NW (310 degrees) at 20 MPH (17 KT):0
Visibility: greater than 7 mile(s):0
Sky conditions: mostly cloudy
Temperature: 53 F (12 C)
Dew Point: 46 F (8 C)
Relative Humidity: 76%
Pressure (altimeter): 30.21 in. Hg (1023 hPa)
ob: GCXO 271000Z 31017KT 9999 FEW010 BKN025 12/08 Q1023 NOSIG
cycle: 10

Station Type Date Time Source
GCXO TAF 2021/02/27 09:28 UTC NOAA

TAF GCXO 270800Z 2709/2809 32017KT 9999 BKN020 TX15/2714Z TN10/2807Z PROB30
TEMPO 2709/2719 31019G29KT PROB30
TEMPO 2802/2807 RA BKN012

Example: see airport list